createdAt,value
2023-05-10T05:01:09.868Z,0.50
2023-05-10T05:02:09.948Z,0.50
2023-05-10T05:03:10.006Z,0.50
2023-05-10T05:04:09.922Z,0.50
2023-05-10T05:05:09.954Z,0.50
2023-05-10T05:06:10.014Z,0.50
2023-05-10T05:07:10.030Z,0.34
2023-05-10T05:08:10.036Z,0.34
2023-05-10T05:09:10.145Z,0.34
2023-05-10T05:10:10.132Z,0.34
2023-05-10T05:11:10.174Z,0.34
2023-05-10T05:12:10.239Z,0.34
2023-05-10T05:13:10.317Z,0.34
2023-05-10T05:14:10.211Z,0.34
2023-05-10T05:15:17.863Z,0.34
2023-05-10T05:16:10.421Z,0.34
2023-05-10T05:17:10.281Z,0.34
2023-05-10T05:18:10.352Z,0.34
2023-05-10T05:19:10.217Z,0.34
2023-05-10T05:20:10.244Z,0.34
2023-05-10T05:21:10.226Z,0.34
2023-05-10T05:22:10.195Z,0.34
2023-05-10T05:23:10.176Z,0.34
2023-05-10T05:24:10.219Z,0.34
2023-05-10T05:25:10.189Z,0.34
2023-05-10T05:26:10.173Z,0.34
2023-05-10T05:27:10.160Z,0.34
2023-05-10T05:28:10.168Z,0.34
2023-05-10T05:29:10.145Z,0.34
2023-05-10T05:30:10.158Z,0.34
2023-05-10T05:31:10.287Z,0.37
2023-05-10T05:32:10.191Z,0.48
2023-05-10T05:33:10.241Z,0.50
2023-05-10T05:34:10.118Z,0.51
2023-05-10T05:35:10.111Z,0.54
2023-05-10T05:36:10.102Z,0.51
2023-05-10T05:37:10.083Z,0.54
2023-05-10T05:38:10.091Z,0.52
2023-05-10T05:39:10.079Z,0.52
2023-05-10T05:40:10.053Z,0.53
2023-05-10T05:41:10.074Z,0.54
2023-05-10T05:42:10.032Z,0.51
2023-05-10T05:43:10.038Z,0.52
2023-05-10T05:44:10.043Z,0.51
2023-05-10T05:45:10.068Z,0.53
2023-05-10T05:46:10.080Z,0.52
2023-05-10T05:47:10.045Z,0.51
2023-05-10T05:48:10.026Z,0.56
2023-05-10T05:49:10.017Z,0.56
2023-05-10T05:50:10.034Z,0.50
2023-05-10T05:51:10.071Z,0.51
2023-05-10T05:52:10.011Z,0.54
2023-05-10T05:53:09.977Z,0.56
2023-05-10T05:54:09.966Z,0.54
2023-05-10T05:55:09.986Z,0.53
2023-05-10T05:56:09.939Z,0.53
2023-05-10T05:57:09.938Z,0.55
2023-05-10T05:58:09.952Z,0.57
2023-05-10T05:59:09.926Z,0.52
2023-05-10T06:00:09.940Z,0.51
2023-05-10T06:01:09.914Z,0.51
2023-05-10T06:02:09.966Z,0.54
2023-05-10T06:03:09.963Z,0.54
2023-05-10T06:04:09.927Z,0.53
2023-05-10T06:05:09.907Z,0.55
2023-05-10T06:06:09.865Z,0.54
2023-05-10T06:07:09.878Z,0.56
2023-05-10T06:08:09.904Z,0.53
2023-05-10T06:09:09.901Z,0.52
2023-05-10T06:10:09.926Z,0.55
2023-05-10T06:11:09.959Z,0.54
2023-05-10T06:12:10.012Z,0.55
2023-05-10T06:13:10.072Z,0.55
2023-05-10T06:14:10.103Z,0.56
2023-05-10T06:15:10.106Z,0.56
2023-05-10T06:16:10.174Z,0.54
2023-05-10T06:17:10.234Z,0.54
2023-05-10T06:18:10.293Z,0.54
2023-05-10T06:19:10.334Z,0.56
2023-05-10T06:20:10.417Z,0.56
2023-05-10T06:21:10.525Z,0.56
2023-05-10T06:22:10.496Z,0.58
2023-05-10T06:23:10.567Z,0.57
2023-05-10T06:24:10.638Z,0.58
2023-05-10T06:25:10.718Z,0.59
2023-05-10T06:26:10.759Z,0.58
2023-05-10T06:27:10.829Z,0.58
2023-05-10T06:28:10.880Z,0.58
2023-05-10T06:29:11.026Z,0.58
2023-05-10T06:30:13.269Z,0.58
2023-05-10T06:31:11.306Z,0.59
2023-05-10T06:32:11.316Z,0.59
2023-05-10T06:33:11.341Z,0.59
2023-05-10T06:34:11.417Z,0.60
2023-05-10T06:35:11.487Z,0.61
2023-05-10T06:36:11.535Z,0.62
2023-05-10T06:37:11.558Z,0.61
2023-05-10T06:38:11.630Z,0.63
2023-05-10T06:39:11.656Z,0.62
2023-05-10T06:40:11.743Z,0.65
2023-05-10T06:41:11.775Z,0.65
2023-05-10T06:42:11.815Z,0.67
2023-05-10T06:43:11.854Z,0.66
2023-05-10T06:44:11.916Z,0.65
2023-05-10T06:45:11.965Z,0.65
2023-05-10T06:46:12.090Z,0.66
2023-05-10T06:47:12.085Z,0.66
2023-05-10T06:48:12.216Z,0.66
2023-05-10T06:49:12.182Z,0.71
2023-05-10T06:50:12.252Z,0.68
2023-05-10T06:51:12.291Z,0.67
2023-05-10T06:52:12.326Z,0.65
2023-05-10T06:53:12.360Z,0.68
2023-05-10T06:54:12.399Z,0.68
2023-05-10T06:55:12.463Z,0.71
2023-05-10T06:56:12.503Z,0.69
2023-05-10T06:57:23.343Z,0.73
2023-05-10T06:58:13.553Z,0.73
2023-05-10T06:59:12.538Z,0.73
2023-05-10T07:00:12.559Z,0.71
2023-05-10T07:01:12.575Z,0.73
2023-05-10T07:02:12.554Z,0.74
2023-05-10T07:03:12.541Z,0.72
2023-05-10T07:04:12.519Z,0.70
2023-05-10T07:05:12.484Z,0.71
2023-05-10T07:06:21.737Z,0.72
2023-05-10T07:07:13.482Z,0.73
2023-05-10T07:08:12.474Z,0.73
2023-05-10T07:09:12.508Z,0.73
2023-05-10T07:10:12.502Z,0.70
2023-05-10T07:11:12.502Z,0.68
2023-05-10T07:12:14.685Z,0.67
2023-05-10T07:13:12.480Z,0.64
2023-05-10T07:14:12.413Z,0.63
2023-05-10T07:15:12.452Z,0.62
2023-05-10T07:16:12.431Z,0.61
2023-05-10T07:17:12.447Z,0.61
2023-05-10T07:18:12.457Z,0.58
2023-05-10T07:19:12.383Z,0.57
2023-05-10T07:20:12.358Z,0.60
2023-05-10T07:21:12.422Z,0.60
2023-05-10T07:22:12.382Z,0.58
2023-05-10T07:23:12.426Z,0.59
2023-05-10T07:24:12.353Z,0.59
2023-05-10T07:25:12.374Z,0.56
2023-05-10T07:26:12.359Z,0.56
2023-05-10T07:27:12.375Z,0.57
2023-05-10T07:28:12.374Z,0.54
2023-05-10T07:29:12.344Z,0.53
2023-05-10T07:30:12.311Z,0.53
2023-05-10T07:31:12.328Z,0.52
2023-05-10T07:32:12.347Z,0.52
2023-05-10T07:33:12.338Z,0.51
2023-05-10T07:34:12.330Z,0.53
2023-05-10T07:35:12.276Z,0.54
2023-05-10T07:36:12.280Z,0.54
2023-05-10T07:37:12.237Z,0.56
2023-05-10T07:38:12.254Z,0.56
2023-05-10T07:39:16.288Z,0.51
2023-05-10T07:40:13.803Z,0.51
2023-05-10T07:41:12.209Z,0.52
2023-05-10T07:42:12.216Z,0.53
2023-05-10T07:43:12.210Z,0.54
2023-05-10T07:44:12.199Z,0.57
2023-05-10T07:45:12.216Z,0.56
2023-05-10T07:46:12.262Z,0.55
2023-05-10T07:47:12.225Z,0.57
2023-05-10T07:48:12.195Z,0.57
2023-05-10T07:49:12.160Z,0.57
2023-05-10T07:50:12.180Z,0.62
2023-05-10T07:51:12.185Z,0.65
2023-05-10T07:52:12.140Z,0.64
2023-05-10T07:53:12.155Z,0.62
2023-05-10T07:54:12.208Z,0.59
2023-05-10T07:55:12.250Z,0.59
2023-05-10T07:56:12.269Z,0.60
2023-05-10T07:57:12.298Z,0.60
2023-05-10T07:58:12.341Z,0.59
2023-05-10T07:59:12.904Z,0.59
2023-05-10T08:00:12.419Z,0.59
2023-05-10T08:01:12.442Z,0.60
2023-05-10T08:02:12.507Z,0.61
2023-05-10T08:03:12.630Z,0.64
2023-05-10T08:04:12.643Z,0.61
2023-05-10T08:05:12.641Z,0.63
2023-05-10T08:06:12.599Z,0.65
2023-05-10T08:07:12.692Z,0.66
2023-05-10T08:08:12.667Z,0.68
2023-05-10T08:09:12.684Z,0.67
2023-05-10T08:10:12.703Z,0.72
2023-05-10T08:11:12.758Z,0.74
2023-05-10T08:12:12.768Z,0.72
2023-05-10T08:13:12.799Z,0.71
2023-05-10T08:14:12.811Z,0.71
2023-05-10T08:15:12.841Z,0.69
2023-05-10T08:16:12.905Z,0.73
2023-05-10T08:17:12.962Z,0.70
2023-05-10T08:18:13.037Z,0.70
2023-05-10T08:19:13.020Z,0.69
2023-05-10T08:20:13.008Z,0.67
2023-05-10T08:21:13.036Z,0.68
2023-05-10T08:22:13.094Z,0.69
2023-05-10T08:23:13.080Z,0.69
2023-05-10T08:24:13.091Z,0.67
2023-05-10T08:25:13.104Z,0.66
2023-05-10T08:26:13.137Z,0.65
2023-05-10T08:27:13.230Z,0.67
2023-05-10T08:28:13.208Z,0.70
2023-05-10T08:29:13.239Z,0.71
2023-05-10T08:30:13.256Z,0.71
2023-05-10T08:31:13.286Z,0.73
2023-05-10T08:32:13.317Z,0.74
2023-05-10T08:33:13.346Z,0.78
2023-05-10T08:34:13.349Z,0.81
2023-05-10T08:35:13.380Z,0.82
2023-05-10T08:36:13.365Z,0.84
2023-05-10T08:37:13.400Z,0.81
2023-05-10T08:38:13.392Z,0.80
2023-05-10T08:39:22.981Z,0.80
2023-05-10T08:40:14.398Z,0.80
2023-05-10T08:41:13.376Z,0.81
2023-05-10T08:42:13.368Z,0.82
2023-05-10T08:43:13.383Z,0.85
2023-05-10T08:44:13.426Z,0.89
2023-05-10T08:45:13.415Z,0.90
2023-05-10T08:46:13.357Z,0.84
2023-05-10T08:47:13.414Z,0.83
2023-05-10T08:48:13.322Z,0.78
2023-05-10T08:49:13.320Z,0.72
2023-05-10T08:50:13.322Z,0.61
2023-05-10T08:51:13.306Z,0.56
2023-05-10T08:52:13.330Z,0.50
2023-05-10T08:53:13.289Z,0.50
2023-05-10T08:54:13.331Z,0.50
2023-05-10T08:55:13.331Z,0.54
2023-05-10T08:56:13.299Z,0.55
2023-05-10T08:57:13.309Z,0.53
2023-05-10T08:58:13.263Z,0.50
2023-05-10T08:59:13.260Z,0.56
2023-05-10T09:00:13.246Z,0.56
2023-05-10T09:01:13.297Z,0.47
2023-05-10T09:02:13.357Z,0.50
2023-05-10T09:03:13.416Z,0.50
2023-05-10T09:04:13.563Z,0.50
2023-05-10T09:05:13.504Z,0.51
2023-05-10T09:06:13.519Z,0.51
2023-05-10T09:07:13.553Z,0.58
2023-05-10T09:08:13.532Z,0.66
2023-05-10T09:09:13.555Z,0.67
2023-05-10T09:10:13.610Z,0.75
2023-05-10T09:11:13.669Z,0.76
2023-05-10T09:12:13.698Z,0.68
2023-05-10T09:13:13.797Z,0.60
2023-05-10T09:14:13.804Z,0.63
2023-05-10T09:15:13.798Z,0.70
2023-05-10T09:16:21.620Z,0.69
2023-05-10T09:17:14.976Z,0.69
2023-05-10T09:18:13.955Z,0.56
2023-05-10T09:19:13.888Z,0.52
2023-05-10T09:20:13.791Z,0.57
2023-05-10T09:21:13.827Z,0.66
2023-05-10T09:22:13.778Z,0.66
2023-05-10T09:23:13.757Z,0.60
2023-05-10T09:24:13.774Z,0.55
2023-05-10T09:25:13.754Z,0.53
2023-05-10T09:26:13.762Z,0.50
2023-05-10T09:27:13.764Z,0.48
2023-05-10T09:28:13.759Z,0.49
2023-05-10T09:29:15.356Z,0.52
2023-05-10T09:30:13.707Z,0.55
2023-05-10T09:31:13.764Z,0.62
2023-05-10T09:32:14.014Z,0.74
2023-05-10T09:33:13.720Z,0.85
2023-05-10T09:34:13.701Z,0.90
2023-05-10T09:35:13.706Z,0.94
2023-05-10T09:36:13.690Z,1.02
2023-05-10T09:37:13.669Z,1.13
2023-05-10T09:38:13.642Z,1.12
2023-05-10T09:39:13.672Z,1.18
2023-05-10T09:40:13.639Z,1.18
2023-05-10T09:41:13.654Z,1.37
2023-05-10T09:42:13.636Z,1.34
2023-05-10T09:43:13.631Z,1.38
2023-05-10T09:44:13.584Z,1.46
2023-05-10T09:45:13.642Z,1.57
2023-05-10T09:46:13.681Z,1.56
2023-05-10T09:47:13.601Z,1.52
2023-05-10T09:48:13.634Z,1.63
2023-05-10T09:49:13.585Z,1.69
2023-05-10T09:50:13.580Z,1.77
2023-05-10T09:51:13.570Z,1.76
2023-05-10T09:52:13.568Z,1.78
2023-05-10T09:53:13.536Z,1.82
2023-05-10T09:54:13.542Z,1.89
2023-05-10T09:55:13.552Z,1.94
2023-05-10T09:56:13.533Z,1.89
2023-05-10T09:57:13.519Z,1.99
2023-05-10T09:58:13.526Z,2.07
2023-05-10T09:59:13.525Z,2.16
2023-05-10T10:00:13.521Z,2.12
2023-05-10T10:01:13.519Z,2.20
2023-05-10T10:02:13.482Z,2.03
2023-05-10T10:03:13.492Z,2.11
2023-05-10T10:04:13.527Z,2.14
2023-05-10T10:05:13.552Z,2.25
2023-05-10T10:06:26.423Z,2.67
2023-05-10T10:07:14.446Z,2.47
2023-05-10T10:08:13.472Z,2.29
2023-05-10T10:09:13.457Z,2.41
2023-05-10T10:10:13.470Z,2.66
2023-05-10T10:11:13.456Z,2.74
2023-05-10T10:12:13.396Z,2.84
2023-05-10T10:13:13.441Z,2.85
2023-05-10T10:14:13.395Z,2.89
2023-05-10T10:15:15.909Z,2.96
2023-05-10T10:16:13.439Z,3.06
2023-05-10T10:17:13.399Z,3.09
2023-05-10T10:18:13.358Z,3.11
2023-05-10T10:19:13.381Z,3.20
2023-05-10T10:20:13.366Z,3.28
2023-05-10T10:21:13.365Z,3.35
2023-05-10T10:22:13.381Z,3.40
2023-05-10T10:23:14.548Z,3.42
2023-05-10T10:24:13.334Z,3.43
2023-05-10T10:25:13.327Z,3.44
2023-05-10T10:26:13.308Z,3.44
2023-05-10T10:27:13.325Z,3.51
2023-05-10T10:28:13.290Z,3.60
2023-05-10T10:29:13.313Z,3.48
2023-05-10T10:30:13.300Z,3.47
2023-05-10T10:31:13.357Z,3.26
2023-05-10T10:32:13.275Z,3.04
2023-05-10T10:33:24.320Z,3.02
2023-05-10T10:34:14.280Z,3.03
2023-05-10T10:35:13.236Z,3.04
2023-05-10T10:36:13.245Z,3.11
2023-05-10T10:37:13.282Z,3.16
2023-05-10T10:38:13.254Z,3.23
2023-05-10T10:39:13.249Z,3.15
2023-05-10T10:40:13.211Z,3.02
2023-05-10T10:41:13.224Z,2.97
2023-05-10T10:42:13.209Z,2.87
2023-05-10T10:43:13.206Z,2.87
2023-05-10T10:44:13.188Z,2.72
2023-05-10T10:45:13.198Z,2.65
2023-05-10T10:46:13.243Z,2.61
2023-05-10T10:47:13.330Z,2.54
2023-05-10T10:48:13.156Z,2.48
2023-05-10T10:49:13.156Z,2.61
2023-05-10T10:50:13.144Z,2.74
2023-05-10T10:51:13.167Z,2.80
2023-05-10T10:52:13.135Z,2.64
2023-05-10T10:53:13.268Z,2.28
2023-05-10T10:54:13.171Z,2.25
2023-05-10T10:55:13.139Z,1.91
2023-05-10T10:56:13.097Z,2.06
2023-05-10T10:57:13.097Z,2.09
2023-05-10T10:58:13.094Z,2.05
2023-05-10T10:59:13.120Z,2.12
2023-05-10T11:00:13.131Z,2.14
2023-05-10T11:01:13.193Z,2.16
2023-05-10T11:02:13.224Z,2.31
2023-05-10T11:03:13.302Z,2.57
2023-05-10T11:04:13.334Z,2.67
2023-05-10T11:05:13.296Z,2.78
2023-05-10T11:06:13.316Z,2.98
2023-05-10T11:07:13.349Z,3.21
2023-05-10T11:08:13.376Z,3.30
2023-05-10T11:09:13.443Z,3.35
2023-05-10T11:10:13.443Z,3.52
2023-05-10T11:11:13.460Z,3.73
2023-05-10T11:12:13.503Z,3.67
2023-05-10T11:13:13.471Z,3.93
2023-05-10T11:14:13.516Z,3.94
2023-05-10T11:15:13.507Z,4.00
2023-05-10T11:16:13.568Z,4.10
2023-05-10T11:17:13.679Z,4.17
2023-05-10T11:18:13.534Z,4.25
2023-05-10T11:19:13.587Z,4.36
2023-05-10T11:20:13.666Z,4.34
2023-05-10T11:21:13.621Z,4.36
2023-05-10T11:22:13.561Z,4.42
2023-05-10T11:23:13.609Z,4.42
2023-05-10T11:24:13.581Z,4.29
2023-05-10T11:25:13.616Z,4.17
2023-05-10T11:26:13.665Z,4.28
2023-05-10T11:27:13.654Z,4.27
2023-05-10T11:28:13.653Z,4.21
2023-05-10T11:29:13.670Z,3.82
2023-05-10T11:30:13.924Z,3.68
2023-05-10T11:31:13.751Z,3.76
2023-05-10T11:32:13.694Z,3.69
2023-05-10T11:33:13.751Z,3.79
2023-05-10T11:34:13.814Z,3.78
2023-05-10T11:35:13.754Z,3.83
2023-05-10T11:36:13.778Z,3.94
2023-05-10T11:37:13.805Z,4.00
2023-05-10T11:38:13.846Z,4.07
2023-05-10T11:39:13.826Z,4.20
2023-05-10T11:40:13.876Z,4.29
2023-05-10T11:41:13.837Z,4.38
2023-05-10T11:42:13.810Z,4.24
2023-05-10T11:43:13.784Z,4.45
2023-05-10T11:44:13.828Z,4.41
2023-05-10T11:45:13.805Z,4.41
2023-05-10T11:46:13.840Z,4.45
2023-05-10T11:47:13.861Z,4.49
2023-05-10T11:48:13.910Z,4.77
2023-05-10T11:49:13.875Z,4.89
2023-05-10T11:50:14.037Z,4.81
2023-05-10T11:51:13.958Z,4.84
2023-05-10T11:52:14.010Z,4.90
2023-05-10T11:53:14.105Z,4.96
2023-05-10T11:54:14.163Z,5.06
2023-05-10T11:55:14.163Z,5.01
2023-05-10T11:56:14.237Z,5.12
2023-05-10T11:57:14.334Z,5.17
2023-05-10T11:58:14.366Z,5.21
2023-05-10T11:59:14.435Z,5.24
2023-05-10T12:00:14.668Z,5.18
2023-05-10T12:01:14.525Z,5.33
2023-05-10T12:02:14.664Z,5.35
2023-05-10T12:03:14.763Z,5.48
2023-05-10T12:04:14.937Z,5.37
2023-05-10T12:05:14.743Z,5.44
2023-05-10T12:06:14.800Z,5.52
2023-05-10T12:07:14.829Z,5.55
2023-05-10T12:08:14.908Z,5.55
2023-05-10T12:09:14.970Z,5.60
2023-05-10T12:10:15.165Z,5.50
2023-05-10T12:11:15.084Z,5.50
2023-05-10T12:12:15.104Z,5.33
2023-05-10T12:13:15.212Z,5.11
2023-05-10T12:14:15.249Z,4.89
2023-05-10T12:15:15.279Z,4.59
2023-05-10T12:16:15.441Z,4.68
2023-05-10T12:17:15.385Z,4.66
2023-05-10T12:18:15.450Z,4.49
2023-05-10T12:19:15.525Z,4.51
2023-05-10T12:20:15.780Z,4.20
2023-05-10T12:21:15.619Z,3.48
2023-05-10T12:22:15.624Z,2.93
2023-05-10T12:23:15.658Z,1.89
2023-05-10T12:24:15.749Z,1.67
2023-05-10T12:25:15.708Z,1.45
2023-05-10T12:26:15.789Z,1.30
2023-05-10T12:27:15.734Z,1.16
2023-05-10T12:28:15.866Z,1.25
2023-05-10T12:29:15.820Z,1.36
2023-05-10T12:30:15.932Z,1.55
2023-05-10T12:31:15.905Z,1.55
2023-05-10T12:32:15.948Z,1.53
2023-05-10T12:33:15.988Z,1.34
2023-05-10T12:34:15.870Z,1.33
2023-05-10T12:35:15.904Z,1.32
2023-05-10T12:36:15.932Z,1.21
2023-05-10T12:37:15.983Z,1.09
2023-05-10T12:38:16.008Z,1.25
2023-05-10T12:39:16.073Z,1.39
2023-05-10T12:40:16.329Z,1.47
2023-05-10T12:41:16.162Z,1.06
2023-05-10T12:42:16.138Z,1.12
2023-05-10T12:43:16.190Z,1.25
2023-05-10T12:44:16.270Z,1.14
2023-05-10T12:45:16.255Z,1.22
2023-05-10T12:46:16.452Z,1.14
2023-05-10T12:47:16.370Z,1.07
2023-05-10T12:48:16.427Z,1.07
2023-05-10T12:49:16.492Z,0.98
2023-05-10T12:50:16.727Z,1.13
2023-05-10T12:51:16.563Z,1.22
2023-05-10T12:52:16.484Z,1.13
2023-05-10T12:53:16.513Z,1.17
2023-05-10T12:54:16.512Z,1.12
2023-05-10T12:55:16.567Z,1.16
2023-05-10T12:56:16.562Z,1.28
2023-05-10T12:57:16.584Z,1.32
2023-05-10T12:58:31.383Z,1.28
2023-05-10T12:59:17.574Z,1.28
2023-05-10T13:00:16.694Z,1.23
2023-05-10T13:01:16.573Z,1.19
2023-05-10T13:02:16.562Z,1.17
2023-05-10T13:03:16.527Z,1.28
2023-05-10T13:04:16.669Z,1.41
2023-05-10T13:05:16.536Z,1.72
2023-05-10T13:06:16.537Z,1.70
2023-05-10T13:07:16.509Z,1.85
2023-05-10T13:08:16.489Z,1.83
2023-05-10T13:09:16.494Z,1.87
2023-05-10T13:10:16.586Z,1.82
2023-05-10T13:11:16.508Z,1.89
2023-05-10T13:12:16.474Z,1.98
2023-05-10T13:13:16.486Z,1.96
2023-05-10T13:14:16.599Z,2.61
2023-05-10T13:15:16.537Z,2.74
2023-05-10T13:16:16.611Z,2.20
2023-05-10T13:17:16.678Z,2.26
2023-05-10T13:18:16.708Z,2.18
2023-05-10T13:19:16.747Z,2.33
2023-05-10T13:20:17.091Z,2.45
2023-05-10T13:21:16.691Z,2.67
2023-05-10T13:22:22.855Z,2.58
2023-05-10T13:23:17.670Z,2.59
2023-05-10T13:24:16.691Z,2.57
2023-05-10T13:25:16.659Z,2.55
2023-05-10T13:26:16.660Z,2.44
2023-05-10T13:27:16.655Z,2.53
2023-05-10T13:28:16.620Z,2.43
2023-05-10T13:29:16.641Z,2.35
2023-05-10T13:30:16.792Z,2.21
2023-05-10T13:31:16.695Z,2.04
2023-05-10T13:32:16.602Z,2.09
2023-05-10T13:33:16.575Z,2.10
2023-05-10T13:34:16.691Z,2.09
2023-05-10T13:35:16.590Z,1.96
2023-05-10T13:36:16.609Z,1.98
2023-05-10T13:37:16.595Z,1.93
2023-05-10T13:38:16.604Z,1.84
2023-05-10T13:39:16.600Z,1.76
2023-05-10T13:40:16.866Z,1.84
2023-05-10T13:41:16.625Z,1.79
2023-05-10T13:42:16.587Z,1.77
2023-05-10T13:43:16.624Z,1.76
2023-05-10T13:44:16.646Z,1.77
2023-05-10T13:45:16.745Z,1.73
2023-05-10T13:46:16.716Z,1.77
2023-05-10T13:47:16.632Z,1.72
2023-05-10T13:48:16.643Z,1.68
2023-05-10T13:49:16.639Z,1.65
2023-05-10T13:50:16.611Z,1.64
2023-05-10T13:51:16.615Z,1.62
2023-05-10T13:52:16.645Z,1.62
2023-05-10T13:53:16.605Z,1.60
2023-05-10T13:54:16.615Z,1.67
2023-05-10T13:55:16.742Z,1.60
2023-05-10T13:56:16.626Z,1.55
2023-05-10T13:57:16.587Z,1.59
2023-05-10T13:58:16.628Z,1.68
2023-05-10T13:59:16.578Z,1.66
2023-05-10T14:00:16.593Z,1.72
2023-05-10T14:01:16.618Z,1.65
2023-05-10T14:02:16.601Z,1.71
2023-05-10T14:03:16.615Z,1.72
2023-05-10T14:04:16.627Z,1.79
2023-05-10T14:05:17.182Z,1.80
2023-05-10T14:06:16.663Z,1.74
2023-05-10T14:07:16.672Z,1.80
2023-05-10T14:08:16.683Z,1.80
2023-05-10T14:09:16.852Z,1.90
2023-05-10T14:10:16.782Z,1.85
2023-05-10T14:11:16.807Z,1.89
2023-05-10T14:12:16.856Z,1.91
2023-05-10T14:13:16.913Z,1.94
2023-05-10T14:14:16.979Z,1.98
2023-05-10T14:15:17.555Z,2.00
2023-05-10T14:16:17.118Z,1.94
2023-05-10T14:17:17.183Z,1.96
2023-05-10T14:18:17.264Z,1.99
2023-05-10T14:19:17.261Z,2.05
2023-05-10T14:20:17.342Z,2.15
2023-05-10T14:21:17.383Z,2.09
2023-05-10T14:22:17.430Z,2.11
2023-05-10T14:23:17.502Z,2.11
2023-05-10T14:24:17.590Z,2.18
2023-05-10T14:25:17.810Z,2.17
2023-05-10T14:26:17.680Z,2.19
2023-05-10T14:27:17.730Z,2.27
2023-05-10T14:28:17.865Z,2.27
2023-05-10T14:29:18.808Z,2.28
2023-05-10T14:30:17.910Z,2.30
2023-05-10T14:31:18.097Z,2.34
2023-05-10T14:32:18.150Z,2.38
2023-05-10T14:33:18.062Z,2.39
2023-05-10T14:34:18.132Z,2.36
2023-05-10T14:35:19.626Z,2.39
2023-05-10T14:36:18.219Z,2.37
2023-05-10T14:37:18.290Z,2.41
2023-05-10T14:38:18.337Z,2.38
2023-05-10T14:39:18.386Z,2.37
2023-05-10T14:40:18.436Z,2.37
2023-05-10T14:41:18.497Z,2.25
2023-05-10T14:42:18.582Z,2.35
2023-05-10T14:43:18.625Z,2.28
2023-05-10T14:44:18.634Z,2.25
2023-05-10T14:45:18.823Z,2.30
2023-05-10T14:46:18.760Z,2.25
2023-05-10T14:47:18.772Z,2.37
2023-05-10T14:48:18.794Z,2.48
2023-05-10T14:49:18.938Z,2.28
2023-05-10T14:50:32.344Z,2.30
2023-05-10T14:51:19.923Z,2.31
2023-05-10T14:53:37.951Z,0.50
2023-05-10T14:54:37.956Z,0.50
2023-05-10T14:55:37.964Z,0.50
2023-05-10T14:56:37.926Z,0.50
2023-05-10T14:57:37.932Z,0.50
2023-05-10T14:58:37.908Z,0.50
2023-05-10T14:59:37.941Z,0.50
2023-05-10T15:00:37.930Z,0.55
2023-05-10T15:01:37.979Z,0.52
2023-05-10T15:02:38.016Z,0.54
2023-05-10T15:03:38.163Z,0.50
2023-05-10T15:04:37.963Z,0.52
2023-05-10T15:05:37.877Z,0.51
2023-05-10T15:06:37.926Z,0.55
2023-05-10T15:07:37.862Z,0.53
2023-05-10T15:08:37.830Z,0.54
2023-05-10T15:09:37.852Z,0.52
2023-05-10T15:10:37.821Z,0.52
2023-05-10T15:11:37.832Z,0.53
2023-05-10T15:12:37.843Z,0.51
2023-05-10T15:13:37.854Z,0.52
2023-05-10T15:14:37.786Z,0.52
2023-05-10T15:15:37.805Z,0.53
2023-05-10T15:16:37.896Z,0.53
2023-05-10T15:17:37.889Z,0.53
2023-05-10T15:18:37.815Z,0.52
2023-05-10T15:19:37.771Z,0.53
2023-05-10T15:20:37.785Z,0.58
2023-05-10T15:21:37.760Z,0.34
2023-05-10T15:22:37.746Z,0.34
2023-05-10T15:23:37.750Z,0.34
2023-05-10T15:24:37.731Z,0.34
2023-05-10T15:25:37.732Z,0.34
2023-05-10T15:26:37.775Z,0.40
2023-05-10T15:27:37.806Z,0.61
2023-05-10T15:28:37.863Z,0.78
2023-05-10T15:29:37.936Z,0.88
2023-05-10T15:30:37.982Z,0.86
2023-05-10T15:31:38.037Z,0.85
2023-05-10T15:32:38.106Z,0.94
2023-05-10T15:33:40.775Z,0.93
2023-05-10T15:34:38.073Z,1.13
2023-05-10T15:35:38.069Z,1.32
2023-05-10T15:36:38.084Z,1.37
2023-05-10T15:37:38.134Z,1.41
2023-05-10T15:38:38.087Z,1.69
2023-05-10T15:39:38.040Z,1.80
2023-05-10T15:40:38.013Z,1.89
2023-05-10T15:41:38.033Z,2.12
2023-05-10T15:42:38.031Z,1.96
2023-05-10T15:43:38.019Z,1.98
2023-05-10T15:44:38.003Z,2.41
2023-05-10T15:45:37.998Z,2.52
2023-05-10T15:46:38.076Z,3.01
2023-05-10T15:47:38.010Z,2.86
2023-05-10T15:48:37.998Z,2.95
2023-05-10T15:49:38.019Z,2.83
2023-05-10T15:50:37.964Z,2.87
2023-05-10T15:51:37.973Z,2.85
2023-05-10T15:52:37.926Z,2.94
2023-05-10T15:53:37.995Z,2.93
2023-05-10T15:54:37.932Z,3.00
2023-05-10T15:55:37.936Z,3.01
2023-05-10T15:56:37.934Z,3.05
2023-05-10T15:57:37.894Z,3.10
2023-05-10T15:58:37.897Z,3.03
2023-05-10T15:59:37.901Z,3.13
2023-05-10T16:00:37.939Z,3.12
2023-05-10T16:01:37.883Z,3.07
2023-05-10T16:02:37.945Z,3.09
2023-05-10T16:03:37.948Z,3.07
2023-05-10T16:04:37.877Z,3.10
2023-05-10T16:05:37.865Z,3.08
2023-05-10T16:06:37.882Z,3.12
2023-05-10T16:07:37.877Z,3.06
2023-05-10T16:08:37.845Z,3.08
2023-05-10T16:09:37.844Z,3.09
2023-05-10T16:10:37.815Z,3.07
2023-05-10T16:11:37.854Z,2.99
2023-05-10T16:12:37.817Z,3.04
2023-05-10T16:13:37.817Z,3.07
2023-05-10T16:14:37.792Z,3.01
2023-05-10T16:15:37.784Z,2.98
2023-05-10T16:16:37.892Z,3.00
2023-05-10T16:17:37.902Z,2.95
2023-05-10T16:18:37.869Z,2.97
2023-05-10T16:19:37.761Z,2.98
2023-05-10T16:20:37.733Z,3.02
2023-05-10T16:21:37.726Z,3.01
2023-05-10T16:22:37.729Z,2.95
2023-05-10T16:23:37.777Z,2.98
2023-05-10T16:24:37.739Z,2.90
2023-05-10T16:25:37.718Z,3.03
2023-05-10T16:26:37.707Z,2.94
2023-05-10T16:27:37.723Z,2.90
2023-05-10T16:28:37.682Z,3.06
2023-05-10T16:29:37.691Z,3.01
2023-05-10T16:30:37.738Z,2.94
2023-05-10T16:31:37.692Z,2.92
2023-05-10T16:32:37.705Z,2.93
2023-05-10T16:33:37.644Z,2.89
2023-05-10T16:34:37.681Z,2.92
2023-05-10T16:35:37.659Z,2.86
2023-05-10T16:36:37.645Z,2.89
2023-05-10T16:37:37.633Z,2.97
2023-05-10T16:38:37.622Z,2.88
2023-05-10T16:39:37.615Z,2.87
2023-05-10T16:40:37.633Z,2.86
2023-05-10T16:41:37.622Z,2.85
2023-05-10T16:42:37.584Z,2.84
2023-05-10T16:43:37.570Z,2.85
2023-05-10T16:44:37.579Z,2.89
2023-05-10T16:45:37.557Z,2.81
2023-05-10T16:46:37.766Z,2.93
2023-05-10T16:47:37.575Z,2.88
2023-05-10T16:48:37.538Z,2.98
2023-05-10T16:49:37.579Z,2.86
2023-05-10T16:50:37.531Z,2.81
2023-05-10T16:51:37.522Z,2.82
2023-05-10T16:52:37.516Z,2.84
2023-05-10T16:53:37.493Z,2.84
2023-05-10T16:54:37.473Z,2.82
2023-05-10T16:55:37.489Z,2.77
2023-05-10T16:56:37.503Z,2.80
2023-05-10T16:57:37.483Z,2.82
2023-05-10T16:58:37.501Z,2.80
2023-05-10T16:59:37.457Z,2.76
2023-05-10T17:00:37.454Z,2.75
